sensor_id;sensor_type;location;lat;lon;timestamp;P1;durP1;ratioP1;P2;durP2;ratioP2
58414;SDS011;44210;42.706;18.344;2022-07-04T00:00:17;10.63;;;4.50;;
58414;SDS011;44210;42.706;18.344;2022-07-04T00:02:44;13.15;;;5.18;;
58414;SDS011;44210;42.706;18.344;2022-07-04T00:05:11;7.60;;;4.57;;
58414;SDS011;44210;42.706;18.344;2022-07-04T00:07:37;13.27;;;4.95;;
58414;SDS011;44210;42.706;18.344;2022-07-04T00:10:04;10.80;;;4.88;;
58414;SDS011;44210;42.706;18.344;2022-07-04T00:12:30;9.15;;;4.85;;
58414;SDS011;44210;42.706;18.344;2022-07-04T00:14:56;10.40;;;4.65;;
58414;SDS011;44210;42.706;18.344;2022-07-04T00:17:22;8.23;;;4.80;;
58414;SDS011;44210;42.706;18.344;2022-07-04T00:19:48;11.30;;;4.82;;
58414;SDS011;44210;42.706;18.344;2022-07-04T00:22:14;9.05;;;4.80;;
58414;SDS011;44210;42.706;18.344;2022-07-04T00:24:40;12.15;;;5.20;;
58414;SDS011;44210;42.706;18.344;2022-07-04T00:27:07;9.70;;;4.80;;
58414;SDS011;44210;42.706;18.344;2022-07-04T00:29:33;9.50;;;5.45;;
58414;SDS011;44210;42.706;18.344;2022-07-04T00:31:59;11.57;;;5.45;;
58414;SDS011;44210;42.706;18.344;2022-07-04T00:34:25;12.57;;;5.07;;
58414;SDS011;44210;42.706;18.344;2022-07-04T00:36:52;10.88;;;5.10;;
58414;SDS011;44210;42.706;18.344;2022-07-04T00:39:18;10.80;;;5.38;;
58414;SDS011;44210;42.706;18.344;2022-07-04T00:41:44;11.70;;;5.40;;
58414;SDS011;44210;42.706;18.344;2022-07-04T00:44:11;11.63;;;6.03;;
58414;SDS011;44210;42.706;18.344;2022-07-04T00:46:38;9.07;;;4.75;;
58414;SDS011;44210;42.706;18.344;2022-07-04T00:49:04;9.18;;;4.63;;
58414;SDS011;44210;42.706;18.344;2022-07-04T00:51:30;12.50;;;5.78;;
58414;SDS011;44210;42.706;18.344;2022-07-04T00:53:57;8.73;;;5.43;;
58414;SDS011;44210;42.706;18.344;2022-07-04T00:56:24;10.30;;;5.65;;
58414;SDS011;44210;42.706;18.344;2022-07-04T00:58:50;11.70;;;5.03;;
58414;SDS011;44210;42.706;18.344;2022-07-04T01:01:17;7.10;;;5.10;;
58414;SDS011;44210;42.706;18.344;2022-07-04T01:03:43;11.63;;;4.88;;
58414;SDS011;44210;42.706;18.344;2022-07-04T01:06:09;11.15;;;5.45;;
58414;SDS011;44210;42.706;18.344;2022-07-04T01:08:40;16.15;;;5.45;;
58414;SDS011;44210;42.706;18.344;2022-07-04T01:11:06;9.98;;;5.00;;
58414;SDS011;44210;42.706;18.344;2022-07-04T01:13:33;11.15;;;5.32;;
58414;SDS011;44210;42.706;18.344;2022-07-04T01:15:59;9.82;;;4.72;;
58414;SDS011;44210;42.706;18.344;2022-07-04T01:18:25;13.95;;;4.78;;
58414;SDS011;44210;42.706;18.344;2022-07-04T01:20:51;9.07;;;4.85;;
58414;SDS011;44210;42.706;18.344;2022-07-04T01:23:17;10.80;;;5.47;;
58414;SDS011;44210;42.706;18.344;2022-07-04T01:25:43;10.85;;;5.28;;
58414;SDS011;44210;42.706;18.344;2022-07-04T01:28:09;20.85;;;6.05;;
58414;SDS011;44210;42.706;18.344;2022-07-04T01:30:36;10.68;;;4.97;;
58414;SDS011;44210;42.706;18.344;2022-07-04T01:33:02;8.73;;;5.68;;
58414;SDS011;44210;42.706;18.344;2022-07-04T01:35:28;14.70;;;5.28;;
58414;SDS011;44210;42.706;18.344;2022-07-04T01:37:54;9.60;;;5.57;;
58414;SDS011;44210;42.706;18.344;2022-07-04T01:40:20;11.52;;;4.85;;
58414;SDS011;44210;42.706;18.344;2022-07-04T01:42:47;12.77;;;5.05;;
58414;SDS011;44210;42.706;18.344;2022-07-04T01:45:13;12.68;;;5.65;;
58414;SDS011;44210;42.706;18.344;2022-07-04T01:47:39;11.57;;;5.38;;
58414;SDS011;44210;42.706;18.344;2022-07-04T01:50:05;19.25;;;5.50;;
58414;SDS011;44210;42.706;18.344;2022-07-04T01:52:32;14.85;;;5.25;;
58414;SDS011;44210;42.706;18.344;2022-07-04T01:54:58;10.63;;;4.80;;
58414;SDS011;44210;42.706;18.344;2022-07-04T01:57:24;11.80;;;4.97;;
58414;SDS011;44210;42.706;18.344;2022-07-04T01:59:50;9.35;;;5.28;;
58414;SDS011;44210;42.706;18.344;2022-07-04T02:02:36;17.80;;;6.22;;
58414;SDS011;44210;42.706;18.344;2022-07-04T02:05:02;9.20;;;5.15;;
58414;SDS011;44210;42.706;18.344;2022-07-04T02:07:28;11.18;;;5.75;;
58414;SDS011;44210;42.706;18.344;2022-07-04T02:09:54;14.15;;;5.38;;
58414;SDS011;44210;42.706;18.344;2022-07-04T02:12:20;7.50;;;4.85;;
58414;SDS011;44210;42.706;18.344;2022-07-04T02:15:05;9.73;;;5.05;;
58414;SDS011;44210;42.706;18.344;2022-07-04T02:17:31;9.48;;;4.70;;
58414;SDS011;44210;42.706;18.344;2022-07-04T02:19:58;12.05;;;6.07;;
58414;SDS011;44210;42.706;18.344;2022-07-04T02:22:24;6.65;;;4.65;;
58414;SDS011;44210;42.706;18.344;2022-07-04T02:24:50;11.90;;;5.28;;
58414;SDS011;44210;42.706;18.344;2022-07-04T02:27:16;9.20;;;5.20;;
58414;SDS011;44210;42.706;18.344;2022-07-04T02:29:42;11.18;;;4.95;;
58414;SDS011;44210;42.706;18.344;2022-07-04T02:32:08;15.02;;;4.95;;
58414;SDS011;44210;42.706;18.344;2022-07-04T02:34:35;9.90;;;5.30;;
58414;SDS011;44210;42.706;18.344;2022-07-04T02:37:01;14.80;;;6.15;;
58414;SDS011;44210;42.706;18.344;2022-07-04T02:39:27;12.38;;;5.68;;
58414;SDS011;44210;42.706;18.344;2022-07-04T02:41:53;7.68;;;5.38;;
58414;SDS011;44210;42.706;18.344;2022-07-04T02:44:19;9.40;;;5.10;;
58414;SDS011;44210;42.706;18.344;2022-07-04T02:46:45;11.93;;;5.40;;
58414;SDS011;44210;42.706;18.344;2022-07-04T02:49:11;17.23;;;6.20;;
58414;SDS011;44210;42.706;18.344;2022-07-04T02:51:37;13.18;;;5.50;;
58414;SDS011;44210;42.706;18.344;2022-07-04T02:54:03;9.23;;;5.50;;
58414;SDS011;44210;42.706;18.344;2022-07-04T02:56:29;11.32;;;5.65;;
58414;SDS011;44210;42.706;18.344;2022-07-04T02:58:55;12.30;;;6.32;;
58414;SDS011;44210;42.706;18.344;2022-07-04T03:01:21;14.85;;;6.80;;
58414;SDS011;44210;42.706;18.344;2022-07-04T03:03:47;11.85;;;6.05;;
58414;SDS011;44210;42.706;18.344;2022-07-04T03:06:14;13.15;;;6.22;;
58414;SDS011;44210;42.706;18.344;2022-07-04T03:08:40;14.48;;;6.75;;
58414;SDS011;44210;42.706;18.344;2022-07-04T03:11:06;14.60;;;7.00;;
58414;SDS011;44210;42.706;18.344;2022-07-04T03:13:32;12.20;;;6.57;;
58414;SDS011;44210;42.706;18.344;2022-07-04T03:15:59;16.15;;;7.18;;
58414;SDS011;44210;42.706;18.344;2022-07-04T03:18:25;12.98;;;6.75;;
58414;SDS011;44210;42.706;18.344;2022-07-04T03:20:51;11.98;;;6.88;;
58414;SDS011;44210;42.706;18.344;2022-07-04T03:23:17;15.57;;;7.50;;
58414;SDS011;44210;42.706;18.344;2022-07-04T03:25:43;12.95;;;6.88;;
58414;SDS011;44210;42.706;18.344;2022-07-04T03:28:09;15.25;;;6.90;;
58414;SDS011;44210;42.706;18.344;2022-07-04T03:30:35;16.40;;;7.35;;
58414;SDS011;44210;42.706;18.344;2022-07-04T03:33:01;13.85;;;6.88;;
58414;SDS011;44210;42.706;18.344;2022-07-04T03:35:27;14.48;;;7.30;;
58414;SDS011;44210;42.706;18.344;2022-07-04T03:37:54;17.05;;;6.72;;
58414;SDS011;44210;42.706;18.344;2022-07-04T03:40:20;12.85;;;6.85;;
58414;SDS011;44210;42.706;18.344;2022-07-04T03:42:46;11.90;;;6.97;;
58414;SDS011;44210;42.706;18.344;2022-07-04T03:45:12;15.68;;;7.13;;
58414;SDS011;44210;42.706;18.344;2022-07-04T03:47:39;12.75;;;6.00;;
58414;SDS011;44210;42.706;18.344;2022-07-04T03:50:05;11.65;;;6.28;;
58414;SDS011;44210;42.706;18.344;2022-07-04T03:52:31;11.80;;;6.65;;
58414;SDS011;44210;42.706;18.344;2022-07-04T03:54:58;13.82;;;6.93;;
58414;SDS011;44210;42.706;18.344;2022-07-04T03:57:24;15.65;;;6.50;;
58414;SDS011;44210;42.706;18.344;2022-07-04T03:59:50;9.20;;;6.80;;
58414;SDS011;44210;42.706;18.344;2022-07-04T04:02:16;13.18;;;6.10;;
58414;SDS011;44210;42.706;18.344;2022-07-04T04:04:42;10.98;;;5.97;;
58414;SDS011;44210;42.706;18.344;2022-07-04T04:07:26;15.10;;;6.68;;
58414;SDS011;44210;42.706;18.344;2022-07-04T04:09:52;14.30;;;6.50;;
58414;SDS011;44210;42.706;18.344;2022-07-04T04:12:19;15.00;;;7.13;;
58414;SDS011;44210;42.706;18.344;2022-07-04T04:14:45;15.38;;;6.70;;
58414;SDS011;44210;42.706;18.344;2022-07-04T04:17:11;10.70;;;6.15;;
58414;SDS011;44210;42.706;18.344;2022-07-04T04:19:37;12.65;;;6.40;;
58414;SDS011;44210;42.706;18.344;2022-07-04T04:22:03;17.00;;;6.72;;
58414;SDS011;44210;42.706;18.344;2022-07-04T04:24:29;12.80;;;6.43;;
58414;SDS011;44210;42.706;18.344;2022-07-04T04:26:55;18.23;;;6.20;;
58414;SDS011;44210;42.706;18.344;2022-07-04T04:29:21;12.10;;;5.88;;
58414;SDS011;44210;42.706;18.344;2022-07-04T04:31:47;15.20;;;5.90;;
58414;SDS011;44210;42.706;18.344;2022-07-04T04:34:14;9.02;;;5.80;;
58414;SDS011;44210;42.706;18.344;2022-07-04T04:36:40;12.70;;;6.47;;
58414;SDS011;44210;42.706;18.344;2022-07-04T04:39:06;11.57;;;5.97;;
58414;SDS011;44210;42.706;18.344;2022-07-04T04:41:32;8.00;;;5.65;;
58414;SDS011;44210;42.706;18.344;2022-07-04T04:43:58;9.57;;;6.15;;
58414;SDS011;44210;42.706;18.344;2022-07-04T04:46:24;12.35;;;5.80;;
58414;SDS011;44210;42.706;18.344;2022-07-04T04:48:50;11.68;;;6.05;;
58414;SDS011;44210;42.706;18.344;2022-07-04T04:51:16;9.63;;;5.80;;
58414;SDS011;44210;42.706;18.344;2022-07-04T04:53:42;11.50;;;6.85;;
58414;SDS011;44210;42.706;18.344;2022-07-04T04:56:08;10.15;;;6.32;;
58414;SDS011;44210;42.706;18.344;2022-07-04T04:58:34;8.32;;;6.75;;
58414;SDS011;44210;42.706;18.344;2022-07-04T05:01:00;14.25;;;5.97;;
58414;SDS011;44210;42.706;18.344;2022-07-04T05:03:27;9.40;;;6.95;;
58414;SDS011;44210;42.706;18.344;2022-07-04T05:05:53;13.70;;;7.72;;
58414;SDS011;44210;42.706;18.344;2022-07-04T05:08:20;14.52;;;6.85;;
58414;SDS011;44210;42.706;18.344;2022-07-04T05:10:46;13.02;;;6.57;;
58414;SDS011;44210;42.706;18.344;2022-07-04T05:13:12;8.93;;;6.40;;
58414;SDS011;44210;42.706;18.344;2022-07-04T05:15:38;16.45;;;7.03;;
58414;SDS011;44210;42.706;18.344;2022-07-04T05:18:04;12.27;;;5.60;;
58414;SDS011;44210;42.706;18.344;2022-07-04T05:20:30;10.18;;;5.20;;
58414;SDS011;44210;42.706;18.344;2022-07-04T05:22:57;13.48;;;5.75;;
58414;SDS011;44210;42.706;18.344;2022-07-04T05:25:23;10.73;;;5.65;;
58414;SDS011;44210;42.706;18.344;2022-07-04T05:27:50;11.43;;;5.88;;
58414;SDS011;44210;42.706;18.344;2022-07-04T05:30:16;11.13;;;5.72;;
58414;SDS011;44210;42.706;18.344;2022-07-04T05:32:42;9.40;;;5.90;;
58414;SDS011;44210;42.706;18.344;2022-07-04T05:35:08;9.05;;;5.43;;
58414;SDS011;44210;42.706;18.344;2022-07-04T05:37:34;13.60;;;5.28;;
58414;SDS011;44210;42.706;18.344;2022-07-04T05:40:01;13.20;;;5.40;;
58414;SDS011;44210;42.706;18.344;2022-07-04T05:42:27;9.15;;;5.40;;
58414;SDS011;44210;42.706;18.344;2022-07-04T05:44:54;12.10;;;6.07;;
58414;SDS011;44210;42.706;18.344;2022-07-04T05:47:20;9.40;;;5.70;;
58414;SDS011;44210;42.706;18.344;2022-07-04T05:49:49;16.02;;;6.18;;
58414;SDS011;44210;42.706;18.344;2022-07-04T05:52:16;10.45;;;5.43;;
58414;SDS011;44210;42.706;18.344;2022-07-04T05:54:42;14.18;;;5.47;;
58414;SDS011;44210;42.706;18.344;2022-07-04T05:57:08;11.05;;;5.40;;
58414;SDS011;44210;42.706;18.344;2022-07-04T05:59:34;17.58;;;6.40;;
58414;SDS011;44210;42.706;18.344;2022-07-04T06:02:00;13.95;;;6.03;;
58414;SDS011;44210;42.706;18.344;2022-07-04T06:04:26;9.18;;;6.00;;
58414;SDS011;44210;42.706;18.344;2022-07-04T06:06:52;15.07;;;5.93;;
58414;SDS011;44210;42.706;18.344;2022-07-04T06:09:18;13.80;;;5.95;;
58414;SDS011;44210;42.706;18.344;2022-07-04T06:11:44;8.80;;;5.45;;
58414;SDS011;44210;42.706;18.344;2022-07-04T06:14:10;10.60;;;5.97;;
58414;SDS011;44210;42.706;18.344;2022-07-04T06:16:37;9.57;;;5.30;;
58414;SDS011;44210;42.706;18.344;2022-07-04T06:19:03;15.65;;;5.35;;
58414;SDS011;44210;42.706;18.344;2022-07-04T06:21:29;11.93;;;6.53;;
58414;SDS011;44210;42.706;18.344;2022-07-04T06:23:55;11.13;;;6.50;;
58414;SDS011;44210;42.706;18.344;2022-07-04T06:26:23;15.77;;;5.90;;
58414;SDS011;44210;42.706;18.344;2022-07-04T06:28:49;14.00;;;6.55;;
58414;SDS011;44210;42.706;18.344;2022-07-04T06:31:15;16.08;;;6.18;;
58414;SDS011;44210;42.706;18.344;2022-07-04T06:33:41;8.82;;;5.57;;
58414;SDS011;44210;42.706;18.344;2022-07-04T06:36:26;10.32;;;5.32;;
58414;SDS011;44210;42.706;18.344;2022-07-04T06:38:52;9.00;;;5.63;;
58414;SDS011;44210;42.706;18.344;2022-07-04T06:41:18;14.40;;;5.53;;
58414;SDS011;44210;42.706;18.344;2022-07-04T06:43:44;7.63;;;5.40;;
58414;SDS011;44210;42.706;18.344;2022-07-04T06:46:10;9.75;;;5.60;;
58414;SDS011;44210;42.706;18.344;2022-07-04T06:48:36;8.02;;;5.55;;
58414;SDS011;44210;42.706;18.344;2022-07-04T06:51:02;10.52;;;5.75;;
58414;SDS011;44210;42.706;18.344;2022-07-04T06:53:28;12.45;;;6.03;;
58414;SDS011;44210;42.706;18.344;2022-07-04T06:55:54;10.50;;;5.70;;
58414;SDS011;44210;42.706;18.344;2022-07-04T06:58:20;8.30;;;5.00;;
58414;SDS011;44210;42.706;18.344;2022-07-04T07:00:46;11.95;;;5.10;;
58414;SDS011;44210;42.706;18.344;2022-07-04T07:03:12;8.88;;;5.45;;
58414;SDS011;44210;42.706;18.344;2022-07-04T07:05:38;13.18;;;6.07;;
58414;SDS011;44210;42.706;18.344;2022-07-04T07:08:05;15.02;;;5.82;;
58414;SDS011;44210;42.706;18.344;2022-07-04T07:10:31;7.75;;;5.15;;
58414;SDS011;44210;42.706;18.344;2022-07-04T07:13:01;9.45;;;5.80;;
58414;SDS011;44210;42.706;18.344;2022-07-04T07:15:27;10.57;;;5.70;;
58414;SDS011;44210;42.706;18.344;2022-07-04T07:17:53;13.68;;;5.50;;
58414;SDS011;44210;42.706;18.344;2022-07-04T07:20:19;8.65;;;5.40;;
58414;SDS011;44210;42.706;18.344;2022-07-04T07:22:45;13.63;;;5.75;;
58414;SDS011;44210;42.706;18.344;2022-07-04T07:25:12;10.95;;;6.60;;
58414;SDS011;44210;42.706;18.344;2022-07-04T07:27:38;9.23;;;5.20;;
58414;SDS011;44210;42.706;18.344;2022-07-04T07:30:06;10.10;;;5.60;;
58414;SDS011;44210;42.706;18.344;2022-07-04T07:32:32;10.18;;;5.50;;
58414;SDS011;44210;42.706;18.344;2022-07-04T07:34:58;14.18;;;5.47;;
58414;SDS011;44210;42.706;18.344;2022-07-04T07:37:24;12.10;;;5.60;;
58414;SDS011;44210;42.706;18.344;2022-07-04T07:39:51;11.65;;;5.93;;
58414;SDS011;44210;42.706;18.344;2022-07-04T07:42:17;9.40;;;5.90;;
58414;SDS011;44210;42.706;18.344;2022-07-04T07:44:43;9.02;;;5.50;;
58414;SDS011;44210;42.706;18.344;2022-07-04T07:47:14;8.57;;;4.68;;
58414;SDS011;44210;42.706;18.344;2022-07-04T07:49:43;7.20;;;5.43;;
58414;SDS011;44210;42.706;18.344;2022-07-04T07:52:09;12.85;;;5.57;;
58414;SDS011;44210;42.706;18.344;2022-07-04T07:54:35;8.35;;;5.28;;
58414;SDS011;44210;42.706;18.344;2022-07-04T07:57:01;11.15;;;6.00;;
58414;SDS011;44210;42.706;18.344;2022-07-04T07:59:27;8.68;;;5.47;;
58414;SDS011;44210;42.706;18.344;2022-07-04T08:01:53;9.02;;;4.95;;
58414;SDS011;44210;42.706;18.344;2022-07-04T08:04:20;13.45;;;6.18;;
58414;SDS011;44210;42.706;18.344;2022-07-04T08:07:03;13.80;;;5.55;;
58414;SDS011;44210;42.706;18.344;2022-07-04T08:09:29;8.25;;;5.53;;
58414;SDS011;44210;42.706;18.344;2022-07-04T08:11:55;7.80;;;5.30;;
58414;SDS011;44210;42.706;18.344;2022-07-04T08:14:22;7.65;;;5.78;;
58414;SDS011;44210;42.706;18.344;2022-07-04T08:16:48;10.90;;;6.28;;
58414;SDS011;44210;42.706;18.344;2022-07-04T08:19:14;8.52;;;5.10;;
58414;SDS011;44210;42.706;18.344;2022-07-04T08:21:40;6.57;;;5.18;;
58414;SDS011;44210;42.706;18.344;2022-07-04T08:24:06;11.82;;;6.47;;
58414;SDS011;44210;42.706;18.344;2022-07-04T08:26:32;9.98;;;5.55;;
58414;SDS011;44210;42.706;18.344;2022-07-04T08:28:58;9.18;;;6.15;;
58414;SDS011;44210;42.706;18.344;2022-07-04T08:31:25;10.43;;;6.28;;
58414;SDS011;44210;42.706;18.344;2022-07-04T08:33:51;13.57;;;5.60;;
58414;SDS011;44210;42.706;18.344;2022-07-04T08:36:18;8.02;;;5.85;;
58414;SDS011;44210;42.706;18.344;2022-07-04T08:38:44;12.90;;;6.07;;
58414;SDS011;44210;42.706;18.344;2022-07-04T08:41:10;8.23;;;5.82;;
58414;SDS011;44210;42.706;18.344;2022-07-04T08:43:37;10.68;;;5.50;;
58414;SDS011;44210;42.706;18.344;2022-07-04T08:46:04;9.90;;;5.70;;
58414;SDS011;44210;42.706;18.344;2022-07-04T08:48:30;11.85;;;5.68;;
58414;SDS011;44210;42.706;18.344;2022-07-04T08:50:59;12.55;;;5.25;;
58414;SDS011;44210;42.706;18.344;2022-07-04T08:53:30;8.18;;;5.32;;
58414;SDS011;44210;42.706;18.344;2022-07-04T08:55:56;7.38;;;5.13;;
58414;SDS011;44210;42.706;18.344;2022-07-04T08:58:44;9.02;;;6.28;;
58414;SDS011;44210;42.706;18.344;2022-07-04T09:01:11;10.85;;;5.47;;
58414;SDS011;44210;42.706;18.344;2022-07-04T09:03:41;10.35;;;5.88;;
58414;SDS011;44210;42.706;18.344;2022-07-04T09:06:07;8.75;;;5.68;;
58414;SDS011;44210;42.706;18.344;2022-07-04T09:08:33;7.47;;;5.45;;
58414;SDS011;44210;42.706;18.344;2022-07-04T09:10:59;7.03;;;5.40;;
58414;SDS011;44210;42.706;18.344;2022-07-04T09:13:26;12.35;;;5.43;;
58414;SDS011;44210;42.706;18.344;2022-07-04T09:15:52;9.65;;;5.72;;
58414;SDS011;44210;42.706;18.344;2022-07-04T09:18:25;11.07;;;6.40;;
58414;SDS011;44210;42.706;18.344;2022-07-04T09:20:53;7.65;;;5.25;;
58414;SDS011;44210;42.706;18.344;2022-07-04T09:23:20;6.90;;;5.32;;
58414;SDS011;44210;42.706;18.344;2022-07-04T09:25:47;13.43;;;6.13;;
58414;SDS011;44210;42.706;18.344;2022-07-04T09:28:25;6.28;;;5.40;;
58414;SDS011;44210;42.706;18.344;2022-07-04T09:30:52;11.27;;;6.18;;
58414;SDS011;44210;42.706;18.344;2022-07-04T09:33:18;9.18;;;5.95;;
58414;SDS011;44210;42.706;18.344;2022-07-04T09:35:46;6.75;;;5.55;;
58414;SDS011;44210;42.706;18.344;2022-07-04T09:38:12;10.95;;;5.65;;
58414;SDS011;44210;42.706;18.344;2022-07-04T09:40:48;11.63;;;6.15;;
58414;SDS011;44210;42.706;18.344;2022-07-04T09:43:36;9.10;;;5.63;;
58414;SDS011;44210;42.706;18.344;2022-07-04T09:46:02;12.38;;;5.65;;
58414;SDS011;44210;42.706;18.344;2022-07-04T09:48:47;9.73;;;5.50;;
58414;SDS011;44210;42.706;18.344;2022-07-04T09:51:14;10.57;;;5.85;;
58414;SDS011;44210;42.706;18.344;2022-07-04T09:53:40;11.07;;;6.15;;
58414;SDS011;44210;42.706;18.344;2022-07-04T09:56:08;11.35;;;5.90;;
58414;SDS011;44210;42.706;18.344;2022-07-04T09:58:34;9.18;;;5.38;;
58414;SDS011;44210;42.706;18.344;2022-07-04T10:01:00;16.60;;;6.15;;
58414;SDS011;44210;42.706;18.344;2022-07-04T10:03:27;13.18;;;5.97;;
58414;SDS011;44210;42.706;18.344;2022-07-04T10:06:01;10.05;;;5.90;;
58414;SDS011;44210;42.706;18.344;2022-07-04T10:08:28;6.82;;;5.35;;
58414;SDS011;44210;42.706;18.344;2022-07-04T10:10:57;10.85;;;5.50;;
58414;SDS011;44210;42.706;18.344;2022-07-04T10:13:24;8.27;;;5.65;;
58414;SDS011;44210;42.706;18.344;2022-07-04T10:15:50;9.93;;;5.95;;
58414;SDS011;44210;42.706;18.344;2022-07-04T10:18:20;8.25;;;5.13;;
58414;SDS011;44210;42.706;18.344;2022-07-04T10:20:46;13.23;;;5.00;;
58414;SDS011;44210;42.706;18.344;2022-07-04T10:23:14;11.27;;;5.88;;
58414;SDS011;44210;42.706;18.344;2022-07-04T10:25:40;7.03;;;5.05;;
58414;SDS011;44210;42.706;18.344;2022-07-04T10:28:07;9.07;;;5.28;;
58414;SDS011;44210;42.706;18.344;2022-07-04T10:30:34;9.68;;;5.30;;
58414;SDS011;44210;42.706;18.344;2022-07-04T10:33:02;11.57;;;5.70;;
58414;SDS011;44210;42.706;18.344;2022-07-04T10:38:27;11.07;;;5.50;;
58414;SDS011;44210;42.706;18.344;2022-07-04T10:40:57;16.10;;;6.03;;
58414;SDS011;44210;42.706;18.344;2022-07-04T10:45:51;18.23;;;5.47;;
58414;SDS011;44210;42.706;18.344;2022-07-04T10:48:23;9.55;;;5.25;;
58414;SDS011;44210;42.706;18.344;2022-07-04T10:50:59;12.38;;;5.30;;
58414;SDS011;44210;42.706;18.344;2022-07-04T10:53:26;8.32;;;4.90;;
58414;SDS011;44210;42.706;18.344;2022-07-04T10:55:52;15.38;;;6.00;;
58414;SDS011;44210;42.706;18.344;2022-07-04T11:01:13;6.32;;;5.00;;
58414;SDS011;44210;42.706;18.344;2022-07-04T11:09:17;5.95;;;5.35;;
58414;SDS011;44210;42.706;18.344;2022-07-04T11:16:58;6.90;;;5.15;;
58414;SDS011;44210;42.706;18.344;2022-07-04T11:19:24;7.53;;;5.00;;
58414;SDS011;44210;42.706;18.344;2022-07-04T11:21:50;10.52;;;4.82;;
58414;SDS011;44210;42.706;18.344;2022-07-04T11:24:16;10.30;;;4.57;;
58414;SDS011;44210;42.706;18.344;2022-07-04T11:26:42;6.18;;;5.30;;
58414;SDS011;44210;42.706;18.344;2022-07-04T11:29:11;8.70;;;5.45;;
58414;SDS011;44210;42.706;18.344;2022-07-04T11:31:45;7.00;;;5.57;;
58414;SDS011;44210;42.706;18.344;2022-07-04T11:34:11;9.05;;;5.10;;
58414;SDS011;44210;42.706;18.344;2022-07-04T11:36:38;8.95;;;6.10;;
58414;SDS011;44210;42.706;18.344;2022-07-04T11:39:08;10.52;;;4.65;;
58414;SDS011;44210;42.706;18.344;2022-07-04T11:44:23;7.70;;;4.90;;
58414;SDS011;44210;42.706;18.344;2022-07-04T11:47:18;9.30;;;5.00;;
58414;SDS011;44210;42.706;18.344;2022-07-04T11:49:45;11.30;;;5.30;;
58414;SDS011;44210;42.706;18.344;2022-07-04T11:52:12;7.88;;;5.75;;
58414;SDS011;44210;42.706;18.344;2022-07-04T11:54:38;8.50;;;5.50;;
58414;SDS011;44210;42.706;18.344;2022-07-04T11:57:11;9.32;;;5.32;;
58414;SDS011;44210;42.706;18.344;2022-07-04T11:59:38;9.30;;;5.10;;
58414;SDS011;44210;42.706;18.344;2022-07-04T12:02:14;8.50;;;5.20;;
58414;SDS011;44210;42.706;18.344;2022-07-04T12:04:41;8.48;;;5.15;;
58414;SDS011;44210;42.706;18.344;2022-07-04T12:07:14;10.88;;;5.45;;
58414;SDS011;44210;42.706;18.344;2022-07-04T12:09:40;10.05;;;5.43;;
58414;SDS011;44210;42.706;18.344;2022-07-04T12:12:06;16.02;;;5.32;;
58414;SDS011;44210;42.706;18.344;2022-07-04T12:14:33;10.80;;;5.05;;
58414;SDS011;44210;42.706;18.344;2022-07-04T12:19:57;12.00;;;4.73;;
58414;SDS011;44210;42.706;18.344;2022-07-04T12:22:30;9.10;;;5.60;;
58414;SDS011;44210;42.706;18.344;2022-07-04T12:24:57;8.90;;;5.13;;
58414;SDS011;44210;42.706;18.344;2022-07-04T12:27:24;10.90;;;4.97;;
58414;SDS011;44210;42.706;18.344;2022-07-04T12:29:51;9.10;;;4.80;;
58414;SDS011;44210;42.706;18.344;2022-07-04T12:32:17;9.02;;;5.65;;
58414;SDS011;44210;42.706;18.344;2022-07-04T12:34:44;8.70;;;6.00;;
58414;SDS011;44210;42.706;18.344;2022-07-04T12:37:13;12.20;;;4.93;;
58414;SDS011;44210;42.706;18.344;2022-07-04T12:39:40;9.27;;;5.38;;
58414;SDS011;44210;42.706;18.344;2022-07-04T12:44:38;12.85;;;5.05;;
58414;SDS011;44210;42.706;18.344;2022-07-04T12:47:05;10.15;;;5.10;;
58414;SDS011;44210;42.706;18.344;2022-07-04T12:49:31;9.93;;;4.75;;
58414;SDS011;44210;42.706;18.344;2022-07-04T12:55:03;8.27;;;4.57;;
58414;SDS011;44210;42.706;18.344;2022-07-04T12:57:30;9.68;;;5.35;;
58414;SDS011;44210;42.706;18.344;2022-07-04T12:59:56;9.77;;;5.22;;
58414;SDS011;44210;42.706;18.344;2022-07-04T13:02:22;12.40;;;6.00;;
58414;SDS011;44210;42.706;18.344;2022-07-04T13:04:48;14.23;;;5.88;;
58414;SDS011;44210;42.706;18.344;2022-07-04T13:07:15;21.42;;;7.03;;
58414;SDS011;44210;42.706;18.344;2022-07-04T13:09:42;22.48;;;6.60;;
58414;SDS011;44210;42.706;18.344;2022-07-04T13:12:08;17.42;;;6.65;;
58414;SDS011;44210;42.706;18.344;2022-07-04T13:14:50;16.70;;;6.80;;
58414;SDS011;44210;42.706;18.344;2022-07-04T13:17:17;15.45;;;6.60;;
58414;SDS011;44210;42.706;18.344;2022-07-04T13:19:43;12.18;;;6.50;;
58414;SDS011;44210;42.706;18.344;2022-07-04T13:22:09;12.00;;;5.97;;
58414;SDS011;44210;42.706;18.344;2022-07-04T13:24:35;8.13;;;5.82;;
58414;SDS011;44210;42.706;18.344;2022-07-04T13:27:01;11.05;;;6.97;;
58414;SDS011;44210;42.706;18.344;2022-07-04T13:29:27;12.90;;;6.10;;
58414;SDS011;44210;42.706;18.344;2022-07-04T13:31:53;9.05;;;6.28;;
58414;SDS011;44210;42.706;18.344;2022-07-04T13:34:19;18.30;;;6.38;;
58414;SDS011;44210;42.706;18.344;2022-07-04T13:36:45;11.60;;;7.75;;
58414;SDS011;44210;42.706;18.344;2022-07-04T13:39:11;11.43;;;6.68;;
58414;SDS011;44210;42.706;18.344;2022-07-04T13:41:37;11.80;;;6.43;;
58414;SDS011;44210;42.706;18.344;2022-07-04T13:44:05;11.60;;;7.10;;
58414;SDS011;44210;42.706;18.344;2022-07-04T13:46:33;11.10;;;7.40;;
58414;SDS011;44210;42.706;18.344;2022-07-04T13:49:02;8.45;;;6.20;;
58414;SDS011;44210;42.706;18.344;2022-07-04T13:51:29;9.73;;;6.28;;
58414;SDS011;44210;42.706;18.344;2022-07-04T13:53:55;11.48;;;7.28;;
58414;SDS011;44210;42.706;18.344;2022-07-04T13:56:21;17.98;;;6.53;;
58414;SDS011;44210;42.706;18.344;2022-07-04T13:58:47;18.23;;;7.00;;
58414;SDS011;44210;42.706;18.344;2022-07-04T14:01:14;15.02;;;6.72;;
58414;SDS011;44210;42.706;18.344;2022-07-04T14:03:43;12.05;;;6.68;;
58414;SDS011;44210;42.706;18.344;2022-07-04T14:06:09;10.27;;;6.25;;
58414;SDS011;44210;42.706;18.344;2022-07-04T14:08:35;17.80;;;7.47;;
58414;SDS011;44210;42.706;18.344;2022-07-04T14:11:01;21.40;;;7.90;;
58414;SDS011;44210;42.706;18.344;2022-07-04T14:13:27;14.90;;;7.82;;
58414;SDS011;44210;42.706;18.344;2022-07-04T14:15:54;11.90;;;7.47;;
58414;SDS011;44210;42.706;18.344;2022-07-04T14:18:20;16.25;;;7.47;;
58414;SDS011;44210;42.706;18.344;2022-07-04T14:20:46;13.90;;;7.05;;
58414;SDS011;44210;42.706;18.344;2022-07-04T14:23:14;8.02;;;6.72;;
58414;SDS011;44210;42.706;18.344;2022-07-04T14:26:00;16.30;;;6.45;;
58414;SDS011;44210;42.706;18.344;2022-07-04T14:28:26;10.55;;;6.70;;
58414;SDS011;44210;42.706;18.344;2022-07-04T14:30:52;12.90;;;7.32;;
58414;SDS011;44210;42.706;18.344;2022-07-04T14:33:18;12.98;;;7.18;;
58414;SDS011;44210;42.706;18.344;2022-07-04T14:35:44;11.20;;;7.63;;
58414;SDS011;44210;42.706;18.344;2022-07-04T14:38:10;17.00;;;7.72;;
58414;SDS011;44210;42.706;18.344;2022-07-04T14:40:36;14.30;;;7.53;;
58414;SDS011;44210;42.706;18.344;2022-07-04T14:43:04;11.57;;;8.13;;
58414;SDS011;44210;42.706;18.344;2022-07-04T14:45:30;8.95;;;6.80;;
58414;SDS011;44210;42.706;18.344;2022-07-04T14:47:56;14.68;;;6.65;;
58414;SDS011;44210;42.706;18.344;2022-07-04T14:50:22;12.75;;;6.47;;
58414;SDS011;44210;42.706;18.344;2022-07-04T14:52:49;12.38;;;6.72;;
58414;SDS011;44210;42.706;18.344;2022-07-04T14:55:15;10.23;;;6.32;;